createdAt,value
2023-04-01T00:01:27.602Z,11.09
2023-04-01T00:04:30.264Z,10.98
2023-04-01T00:07:33.991Z,10.91
2023-04-01T00:10:36.624Z,10.76
2023-04-01T00:13:38.873Z,10.67
2023-04-01T00:16:41.605Z,10.56
2023-04-01T00:19:44.662Z,10.55
2023-04-01T00:22:47.557Z,10.39
2023-04-01T00:25:50.574Z,10.38
2023-04-01T00:28:53.612Z,10.16
2023-04-01T00:31:57.376Z,10.20
2023-04-01T00:35:02.737Z,10.04
2023-04-01T00:38:05.745Z,10.14
2023-04-01T00:41:08.891Z,10.15
2023-04-01T00:44:23.375Z,10.19
2023-04-01T00:47:27.964Z,10.23
2023-04-01T00:50:32.839Z,10.27
2023-04-01T00:53:39.713Z,10.33
2023-04-01T00:56:57.279Z,10.43
2023-04-01T01:00:00.832Z,10.54
2023-04-01T01:03:03.905Z,10.47
2023-04-01T01:06:12.322Z,10.72
2023-04-01T01:09:31.498Z,10.79
2023-04-01T01:12:40.425Z,10.58
2023-04-01T01:15:51.011Z,10.92
2023-04-01T01:19:06.891Z,10.99
2023-04-01T01:22:35.207Z,10.89
2023-04-01T01:26:09.096Z,10.92
2023-04-01T01:29:32.458Z,11.05
2023-04-01T01:33:04.967Z,11.08
2023-04-01T01:36:13.314Z,10.99
2023-04-01T01:39:17.001Z,11.17
2023-04-01T01:42:21.684Z,11.06
2023-04-01T01:45:27.541Z,11.25
2023-04-01T01:48:31.500Z,11.27
2023-04-01T01:51:35.280Z,11.16
2023-04-01T01:54:51.822Z,11.29
2023-04-01T01:57:59.208Z,11.15
2023-04-01T02:01:07.012Z,11.31
2023-04-01T02:04:12.150Z,11.35
2023-04-01T02:07:21.192Z,11.34
2023-04-01T02:10:28.104Z,11.23
2023-04-01T02:13:53.834Z,11.38
2023-04-01T02:17:01.353Z,11.40
2023-04-01T02:20:09.912Z,11.41
2023-04-01T02:23:13.607Z,11.42
2023-04-01T02:26:17.120Z,11.41
2023-04-01T02:29:23.009Z,11.26
2023-04-01T02:32:27.962Z,11.25
2023-04-01T02:35:31.293Z,11.43
2023-04-01T02:38:36.873Z,11.29
2023-04-01T02:41:41.690Z,11.29
2023-04-01T02:44:44.006Z,11.43
2023-04-01T02:47:46.673Z,11.35
2023-04-01T02:50:49.089Z,11.37
2023-04-01T02:53:51.722Z,11.36
2023-04-01T02:56:54.108Z,11.07
2023-04-01T02:59:56.878Z,11.16
2023-04-01T03:02:59.418Z,11.27
2023-04-01T03:06:10.270Z,11.13
2023-04-01T03:09:12.560Z,11.22
2023-04-01T03:12:15.522Z,11.24
2023-04-01T03:15:19.008Z,11.09
2023-04-01T03:18:21.633Z,11.06
2023-04-01T03:21:25.321Z,10.99
2023-04-01T03:24:27.922Z,10.99
2023-04-01T03:27:30.332Z,11.12
2023-04-01T03:30:33.079Z,11.05
2023-04-01T03:33:36.020Z,11.03
2023-04-01T03:36:38.765Z,11.03
2023-04-01T03:39:42.496Z,11.04
2023-04-01T03:42:46.274Z,10.88
2023-04-01T03:45:51.281Z,11.03
2023-04-01T03:48:53.953Z,11.05
2023-04-01T03:51:56.269Z,10.93
2023-04-01T03:54:58.930Z,11.02
2023-04-01T03:58:03.060Z,10.99
2023-04-01T04:01:15.581Z,11.01
2023-04-01T04:04:18.796Z,10.86
2023-04-01T04:07:21.524Z,10.91
2023-04-01T04:10:27.129Z,10.97
2023-04-01T04:13:29.437Z,10.95
2023-04-01T04:16:32.625Z,10.91
2023-04-01T04:19:35.235Z,10.80
2023-04-01T04:22:38.077Z,10.91
2023-04-01T04:25:40.884Z,10.87
2023-04-01T04:28:43.716Z,10.76
2023-04-01T04:31:46.728Z,10.88
2023-04-01T04:34:49.372Z,10.74
2023-04-01T04:37:51.971Z,10.72
2023-04-01T04:40:55.329Z,10.85
2023-04-01T04:43:59.538Z,10.81
2023-04-01T04:47:02.696Z,10.89
2023-04-01T04:50:05.751Z,10.92
2023-04-01T04:53:11.579Z,10.79
2023-04-01T04:56:14.266Z,10.83
2023-04-01T04:59:18.026Z,10.92
2023-04-01T05:02:21.284Z,10.94
2023-04-01T05:05:24.173Z,10.83
2023-04-01T05:08:26.517Z,10.84
2023-04-01T05:11:29.154Z,10.98
2023-04-01T05:14:31.790Z,10.89
2023-04-01T05:17:35.391Z,11.03
2023-04-01T05:20:38.779Z,11.07
2023-04-01T05:23:42.266Z,10.99
2023-04-01T05:26:44.661Z,11.18
2023-04-01T05:29:47.634Z,11.10
2023-04-01T05:32:50.626Z,11.14
2023-04-01T05:35:53.993Z,11.32
2023-04-01T05:38:57.403Z,11.38
2023-04-01T05:42:01.340Z,11.44
2023-04-01T05:45:04.170Z,11.50
2023-04-01T05:48:07.809Z,11.58
2023-04-01T05:51:14.925Z,11.63
2023-04-01T05:54:18.173Z,11.65
2023-04-01T05:57:21.130Z,11.81
2023-04-01T06:00:24.185Z,11.88
2023-04-01T06:03:27.350Z,11.84
2023-04-01T06:06:32.907Z,11.91
2023-04-01T06:09:36.147Z,12.11
2023-04-01T06:12:46.799Z,12.15
2023-04-01T06:16:08.145Z,12.21
2023-04-01T06:19:27.542Z,12.27
2023-04-01T06:22:52.494Z,12.18
2023-04-01T06:26:12.033Z,12.38
2023-04-01T06:29:23.922Z,12.29
2023-04-01T06:32:29.162Z,12.49
2023-04-01T06:35:41.099Z,12.57
2023-04-01T06:38:53.786Z,12.65
2023-04-01T06:42:16.861Z,12.61
2023-04-01T06:45:25.251Z,12.66
2023-04-01T06:48:54.585Z,12.85
2023-04-01T06:52:14.963Z,12.94
2023-04-01T06:55:34.459Z,12.88
2023-04-01T06:58:55.814Z,13.17
2023-04-01T07:02:05.260Z,13.29
2023-04-01T07:05:08.399Z,13.26
2023-04-01T07:08:16.041Z,13.49
2023-04-01T07:11:27.949Z,13.57
2023-04-01T07:14:42.522Z,13.41
2023-04-01T07:17:48.347Z,13.85
2023-04-01T07:20:52.882Z,13.81
2023-04-01T07:24:01.489Z,14.05
2023-04-01T07:27:10.876Z,14.07
2023-04-01T07:30:19.203Z,14.26
2023-04-01T07:33:38.385Z,14.39
2023-04-01T07:36:40.938Z,14.78
2023-04-01T07:40:15.756Z,14.85
2023-04-01T07:43:50.412Z,15.27
2023-04-01T07:47:30.991Z,15.38
2023-04-01T07:50:43.029Z,15.69
2023-04-01T07:53:49.805Z,15.79
2023-04-01T07:57:16.272Z,16.06
2023-04-01T08:00:39.595Z,16.25
2023-04-01T08:03:55.167Z,16.47
2023-04-01T08:07:11.400Z,16.77
2023-04-01T08:10:30.563Z,16.88
2023-04-01T08:13:49.843Z,16.94
2023-04-01T08:17:10.811Z,17.18
2023-04-01T08:20:27.328Z,17.20
2023-04-01T08:23:34.929Z,17.37
2023-04-01T08:26:42.304Z,17.49
2023-04-01T08:30:03.572Z,17.38
2023-04-01T08:33:09.441Z,17.57
2023-04-01T08:36:21.354Z,17.35
2023-04-01T08:39:37.580Z,17.27
2023-04-01T08:42:43.297Z,17.25
2023-04-01T08:45:57.836Z,17.47
2023-04-01T08:49:22.018Z,17.33
2023-04-01T08:52:41.989Z,17.45
2023-04-01T08:56:26.065Z,17.57
2023-04-01T08:59:51.330Z,17.69
2023-04-01T09:03:28.605Z,17.78
2023-04-01T09:07:01.837Z,18.21
2023-04-01T09:10:35.346Z,17.92
2023-04-01T09:13:48.823Z,17.99
2023-04-01T09:16:54.476Z,18.18
2023-04-01T09:20:27.685Z,18.35
2023-04-01T09:23:38.738Z,18.22
2023-04-01T09:27:05.833Z,18.31
2023-04-01T09:30:40.634Z,18.38
2023-04-01T09:33:48.974Z,18.20
2023-04-01T09:37:11.317Z,17.81
2023-04-01T09:40:19.979Z,17.56
2023-04-01T09:43:28.963Z,17.00
2023-04-01T09:46:53.028Z,16.56
2023-04-01T09:50:16.395Z,16.22
2023-04-01T09:53:22.315Z,15.94
2023-04-01T09:56:32.039Z,15.88
2023-04-01T09:59:55.244Z,15.66
2023-04-01T10:03:30.618Z,15.56
2023-04-01T10:06:48.806Z,15.56
2023-04-01T10:10:35.529Z,15.50
2023-04-01T10:13:50.966Z,15.46
2023-04-01T10:17:08.553Z,15.39
2023-04-01T10:20:29.548Z,15.39
2023-04-01T10:24:09.683Z,15.38
2023-04-01T10:28:06.465Z,15.53
2023-04-01T10:31:43.699Z,15.66
2023-04-01T10:34:55.787Z,15.63
2023-04-01T10:38:28.468Z,15.57
2023-04-01T10:41:53.235Z,15.56
2023-04-01T10:45:11.533Z,15.54
2023-04-01T10:48:23.855Z,15.45
2023-04-01T10:51:56.883Z,15.36
2023-04-01T10:55:44.237Z,15.60
2023-04-01T10:59:29.382Z,15.85
2023-04-01T11:03:07.715Z,16.07
2023-04-01T11:06:22.922Z,16.33
2023-04-01T11:10:03.614Z,16.16
2023-04-01T11:13:09.698Z,16.14
2023-04-01T11:16:17.213Z,16.18
2023-04-01T11:19:58.872Z,16.15
2023-04-01T11:23:26.482Z,16.43
2023-04-01T11:26:53.753Z,17.19
2023-04-01T11:30:34.012Z,17.68
2023-04-01T11:33:48.676Z,17.62
2023-04-01T11:37:25.716Z,17.46
2023-04-01T11:40:48.718Z,17.11
2023-04-01T11:51:03.713Z,16.19
2023-04-01T11:54:37.873Z,15.83
2023-04-01T11:57:53.769Z,15.57
2023-04-01T12:01:14.952Z,15.39
2023-04-01T12:04:55.763Z,15.11
2023-04-01T12:08:30.447Z,15.08
2023-04-01T12:11:48.926Z,15.04
2023-04-01T12:15:24.818Z,14.94
2023-04-01T12:18:34.890Z,15.16
2023-04-01T12:21:55.659Z,15.34
2023-04-01T12:25:29.274Z,15.48
2023-04-01T12:29:05.828Z,15.71
2023-04-01T12:32:44.512Z,15.79
2023-04-01T12:36:11.984Z,15.98
2023-04-01T12:39:49.091Z,16.08
2023-04-01T12:43:29.025Z,16.15
2023-04-01T12:46:48.231Z,16.15
2023-04-01T12:50:15.976Z,16.15
2023-04-01T12:53:49.234Z,16.22
2023-04-01T12:57:03.483Z,16.56
2023-04-01T13:00:28.107Z,16.84
2023-04-01T13:03:41.906Z,16.93
2023-04-01T13:06:58.711Z,17.00
2023-04-01T13:10:29.706Z,17.02
2023-04-01T13:14:06.644Z,17.21
2023-04-01T13:17:51.403Z,17.27
2023-04-01T13:20:53.919Z,17.38
2023-04-01T13:24:19.423Z,17.74
2023-04-01T13:27:50.847Z,17.99
2023-04-01T13:31:14.756Z,18.48
2023-04-01T13:34:23.425Z,18.68
2023-04-01T13:37:36.105Z,18.70
2023-04-01T13:41:04.170Z,18.83
2023-04-01T13:44:16.501Z,19.12
2023-04-01T13:47:24.988Z,19.10
2023-04-01T13:50:32.594Z,19.02
2023-04-01T13:53:48.044Z,18.80
2023-04-01T13:57:05.616Z,18.84
2023-04-01T14:00:36.165Z,18.98
2023-04-01T14:03:51.412Z,19.00
2023-04-01T14:07:15.742Z,18.76
2023-04-01T14:11:10.852Z,18.25
2023-04-01T14:14:18.927Z,17.95
2023-04-01T14:17:33.775Z,17.63
2023-04-01T14:21:00.315Z,17.31
2023-04-01T14:24:05.854Z,17.18
2023-04-01T14:27:32.669Z,16.86
2023-04-01T14:30:52.898Z,16.62
2023-04-01T14:34:01.237Z,16.48
2023-04-01T14:37:22.763Z,16.48
2023-04-01T14:40:52.319Z,16.53
2023-04-01T14:44:18.394Z,16.50
2023-04-01T14:47:49.309Z,16.61
2023-04-01T14:50:55.617Z,16.49
2023-04-01T14:54:04.627Z,16.59
2023-04-01T14:57:17.620Z,16.54
2023-04-01T15:00:20.605Z,16.53
2023-04-01T15:03:48.991Z,16.40
2023-04-01T15:07:03.350Z,16.51
2023-04-01T15:10:36.869Z,16.53
2023-04-01T15:14:04.221Z,16.52
2023-04-01T15:17:28.913Z,16.47
2023-04-01T15:20:44.948Z,16.26
2023-04-01T15:23:50.474Z,16.31
2023-04-01T15:26:59.533Z,16.23
2023-04-01T15:30:20.342Z,16.17
2023-04-01T15:33:50.033Z,16.15
2023-04-01T15:37:14.673Z,16.15
2023-04-01T15:40:16.820Z,16.10
2023-04-01T15:43:28.439Z,16.10
2023-04-01T15:46:42.995Z,16.11
2023-04-01T15:49:54.021Z,16.07
2023-04-01T15:53:14.727Z,15.98
2023-04-01T15:56:45.825Z,16.01
2023-04-01T16:00:13.177Z,15.96
2023-04-01T16:03:44.137Z,15.91
2023-04-01T16:07:04.939Z,15.83
2023-04-01T16:10:32.969Z,15.83
2023-04-01T16:14:14.840Z,15.69
2023-04-01T16:17:28.614Z,15.76
2023-04-01T16:20:52.270Z,15.69
2023-04-01T16:24:00.638Z,15.65
2023-04-01T16:27:11.602Z,15.62
2023-04-01T16:30:41.709Z,15.42
2023-04-01T16:34:09.711Z,15.52
2023-04-01T16:37:14.527Z,15.47
2023-04-01T16:40:48.113Z,15.45
2023-04-01T16:43:55.558Z,15.46
2023-04-01T16:47:07.180Z,15.34
2023-04-01T16:50:28.997Z,15.18
2023-04-01T16:53:44.097Z,15.23
2023-04-01T16:56:56.216Z,15.13
2023-04-01T17:00:31.337Z,15.06
2023-04-01T17:03:40.762Z,15.03
2023-04-01T17:07:08.321Z,14.81
2023-04-01T17:10:44.419Z,14.90
2023-04-01T17:14:04.918Z,14.82
2023-04-01T17:17:25.796Z,14.73
2023-04-01T17:20:48.780Z,14.66
2023-04-01T17:24:10.503Z,14.45
2023-04-01T17:27:36.753Z,14.36
2023-04-01T17:31:07.355Z,14.43
2023-04-01T17:34:51.899Z,14.37
2023-04-01T17:38:22.236Z,14.33
2023-04-01T17:41:49.514Z,14.28
2023-04-01T17:45:02.779Z,14.24
2023-04-01T17:48:24.017Z,14.06
2023-04-01T17:51:33.889Z,14.15
2023-04-01T17:54:54.535Z,14.10
2023-04-01T17:58:21.193Z,13.91
2023-04-01T18:01:58.237Z,13.87
2023-04-01T18:05:09.817Z,13.95
2023-04-01T18:08:40.681Z,13.91
2023-04-01T18:12:07.554Z,13.87
2023-04-01T18:15:32.594Z,13.83
2023-04-01T18:18:57.238Z,13.80
2023-04-01T18:22:17.317Z,13.78
2023-04-01T18:25:27.862Z,13.74
2023-04-01T18:28:43.422Z,13.72
2023-04-01T18:31:52.407Z,13.59
2023-04-01T18:35:15.502Z,13.62
2023-04-01T18:38:32.899Z,13.64
2023-04-01T18:41:50.517Z,13.47
2023-04-01T18:45:29.933Z,13.43
2023-04-01T18:48:50.513Z,13.55
2023-04-01T18:52:17.899Z,13.52
2023-04-01T18:55:45.410Z,13.49
2023-04-01T18:59:01.718Z,13.30
2023-04-01T19:02:29.892Z,13.27
2023-04-01T19:05:35.581Z,13.35
2023-04-01T19:08:41.851Z,13.34
2023-04-01T19:12:23.222Z,13.30
2023-04-01T19:15:30.542Z,13.29
2023-04-01T19:19:06.268Z,13.25
2023-04-01T19:22:37.024Z,13.24
2023-04-01T19:26:05.412Z,13.22
2023-04-01T19:29:21.609Z,13.19
2023-04-01T19:32:48.043Z,13.20
2023-04-01T19:36:29.944Z,13.17
2023-04-01T19:40:03.413Z,13.13
2023-04-01T19:43:30.026Z,12.96
2023-04-01T19:46:45.457Z,12.94
2023-04-01T19:49:53.612Z,12.94
2023-04-01T19:53:05.456Z,13.05
2023-04-01T19:56:27.191Z,12.87
2023-04-01T19:59:42.648Z,12.86
2023-04-01T20:03:02.452Z,12.84
2023-04-01T20:06:39.291Z,12.85
2023-04-01T20:10:15.095Z,12.94
2023-04-01T20:13:54.867Z,12.91
2023-04-01T20:17:22.104Z,12.75
2023-04-01T20:20:30.401Z,12.81
2023-04-01T20:23:51.590Z,12.80
2023-04-01T20:27:14.465Z,12.81
2023-04-01T20:30:31.950Z,12.76
2023-04-01T20:33:34.896Z,12.77
2023-04-01T20:37:05.136Z,12.80
2023-04-01T20:40:31.350Z,12.78
2023-04-01T20:43:52.030Z,12.80
2023-04-01T20:47:01.886Z,12.80
2023-04-01T20:50:31.698Z,12.81
2023-04-01T20:54:10.800Z,12.80
2023-04-01T20:57:29.562Z,12.80
2023-04-01T21:00:56.659Z,12.75
2023-04-01T21:04:27.130Z,12.71
2023-04-01T21:07:39.999Z,12.67
2023-04-01T21:11:11.350Z,12.62
2023-04-01T21:14:48.805Z,12.62
2023-04-01T21:18:09.775Z,12.59
2023-04-01T21:21:15.376Z,12.56
2023-04-01T21:24:32.658Z,12.55
2023-04-01T21:28:12.456Z,12.51
2023-04-01T21:31:17.456Z,12.49
2023-04-01T21:34:53.189Z,12.48
2023-04-01T21:38:13.292Z,12.46
2023-04-01T21:41:48.578Z,12.44
2023-04-01T21:45:09.846Z,12.35
2023-04-01T21:48:54.757Z,12.29
2023-04-01T21:52:08.888Z,12.25
2023-04-01T21:55:33.421Z,12.24
2023-04-01T21:58:54.431Z,12.21
2023-04-01T22:02:03.733Z,12.17
2023-04-01T22:05:32.085Z,12.15
2023-04-01T22:08:42.938Z,12.11
2023-04-01T22:12:19.204Z,11.99
2023-04-01T22:16:03.628Z,12.10
2023-04-01T22:19:39.047Z,12.07
2023-04-01T22:23:14.010Z,11.87
2023-04-01T22:26:25.825Z,11.83
2023-04-01T22:29:55.342Z,12.01
2023-04-01T22:33:17.649Z,11.97
2023-04-01T22:37:02.076Z,11.98
2023-04-01T22:40:25.992Z,11.91
2023-04-01T22:43:48.521Z,11.91
2023-04-01T22:47:02.136Z,11.76
2023-04-01T22:50:22.009Z,11.81
2023-04-01T22:53:42.631Z,11.94
2023-04-01T22:56:52.813Z,11.93
2023-04-01T23:00:02.250Z,11.80
2023-04-01T23:03:07.471Z,11.88
2023-04-01T23:06:19.895Z,11.82
2023-04-01T23:09:27.057Z,11.79
2023-04-01T23:12:31.545Z,11.65
2023-04-01T23:15:35.951Z,11.78
2023-04-01T23:18:48.053Z,11.62
2023-04-01T23:22:14.623Z,11.75
2023-04-01T23:25:35.808Z,11.74
2023-04-01T23:28:46.399Z,11.73
2023-04-01T23:31:57.356Z,11.70
2023-04-01T23:35:01.302Z,11.52
2023-04-01T23:38:03.979Z,11.50
2023-04-01T23:41:07.463Z,11.61
2023-04-01T23:44:13.890Z,11.43
2023-04-01T23:47:23.562Z,11.42
2023-04-01T23:50:29.220Z,11.47
2023-04-01T23:53:35.279Z,11.52
2023-04-01T23:56:54.643Z,11.55
